Date,TemperatureHighF,TemperatureAvgF,TemperatureLowF,DewpointHighF,DewpointAvgF,DewpointLowF,HumidityHigh,HumidityAvg,HumidityLow,PressureMaxIn,PressureMinIn,WindSpeedMaxMPH,WindSpeedAvgMPH,GustSpeedMaxMPH,PrecipitationSumIn
2013-1-1,27,16,10,16,10,6,86,76,58,30.62,30.30,5,0,8,0.00
2013-1-2,30,19,9,18,11,3,89,70,55,30.67,30.48,4,1,7,0.00
2013-1-3,26,12,0,10,3,-4,83,69,41,30.84,30.67,8,1,10,0.00
2013-1-4,29,14,2,12,4,-3,81,66,39,30.79,30.54,8,2,11,0.00
2013-1-5,30,14,2,14,6,-2,93,70,43,30.83,30.67,8,2,12,0.00
2013-1-6,30,18,4,13,6,0,83,63,39,30.80,30.45,10,4,18,0.00
2013-1-7,35,22,8,18,10,4,83,63,35,30.49,30.27,10,3,16,0.00
2013-1-8,38,23,12,20,13,7,81,67,41,30.69,30.35,7,1,10,0.00
2013-1-9,39,24,13,22,15,8,84,71,44,30.72,30.36,7,1,11,0.00
2013-1-10,41,24,14,27,16,9,84,74,56,30.35,29.66,8,2,13,0.00
2013-1-11,42,26,13,31,18,7,92,72,45,30.04,29.48,13,5,16,0.02
2013-1-12,23,13,5,9,4,0,82,69,44,30.29,30.04,8,1,14,0.00
2013-1-13,19,10,4,10,4,-1,92,74,63,30.43,30.25,3,1,6,0.00
2013-1-14,18,8,-1,4,0,-6,92,69,50,30.58,30.42,4,1,8,0.00
2013-1-15,18,13,3,5,1,-4,75,58,42,30.99,30.83,6,2,8,0.00
2013-1-16,33,7,3,13,0,-3,84,73,43,30.99,30.78,2,0,4,0.00
2013-1-17,37,28,16,21,16,10,79,63,43,30.77,30.70,7,2,12,0.00
2013-1-18,37,20,8,21,13,4,85,72,47,30.81,30.58,10,3,11,0.00
2013-1-19,40,22,10,22,13,5,84,70,38,30.81,30.61,8,2,10,0.00
2013-1-20,40,22,9,21,13,4,82,69,40,30.72,30.49,10,2,11,0.00
2013-1-21,41,23,11,24,13,5,83,66,41,30.71,30.51,11,3,12,0.00
2013-1-22,46,30,16,24,17,10,85,62,29,30.71,30.51,8,1,12,0.00
2013-1-23,43,26,11,25,14,5,80,62,33,30.76,30.53,12,2,13,0.00
2013-1-24,40,30,19,33,22,12,92,75,43,30.58,30.42,4,1,8,0.03
2013-1-25,42,36,33,38,34,31,94,91,85,30.49,30.24,3,0,6,0.01
2013-1-26,46,39,35,39,36,33,94,88,66,30.24,29.82,4,1,5,0.17
2013-1-27,46,39,35,38,35,33,94,86,72,29.92,29.74,6,2,8,0.10
2013-1-28,42,33,23,36,31,21,94,92,76,29.89,29.67,8,1,8,0.71
2013-1-29,25,21,12,20,16,8,92,84,75,30.26,29.88,4,1,7,0.00
2013-1-30,26,21,14,23,18,11,92,88,85,30.42,30.27,5,1,8,0.11
2013-1-31,40,31,25,30,26,22,92,82,59,30.54,30.39,4,1,5,0.07
2013-2-1,41,34,28,32,27,25,89,78,58,30.45,30.31,10,2,17,0.00
2013-2-2,44,29,18,29,22,14,88,77,46,30.67,30.45,5,1,7,0.00
2013-2-3,41,30,21,26,21,16,85,71,46,30.55,30.22,5,1,8,0.00
2013-2-4,45,29,15,27,20,11,87,70,43,30.40,30.24,6,1,8,0.00
2013-2-5,48,31,18,31,21,13,89,70,38,30.40,30.10,6,1,8,0.00
2013-2-6,46,33,22,34,26,18,87,76,51,30.22,30.02,7,1,9,0.00
2013-2-7,45,32,23,29,22,17,86,67,37,30.35,30.13,8,2,11,0.00
2013-2-8,44,32,19,29,18,12,80,58,36,30.20,29.74,10,3,15,0.00
2013-2-9,40,34,27,30,25,16,90,71,58,29.78,29.56,8,1,15,0.03
2013-2-10,38,28,19,21,16,12,79,63,38,30.05,29.78,6,2,9,0.00
2013-2-11,32,26,18,23,18,10,85,71,61,30.30,30.02,8,2,14,0.00
2013-2-12,34,22,12,19,12,7,81,65,40,30.50,30.30,6,1,8,0.00
2013-2-13,40,31,25,25,19,14,70,61,46,30.49,30.25,6,1,11,0.00
2013-2-14,40,33,28,29,23,18,89,67,43,30.37,30.23,8,2,12,0.01
2013-2-15,39,31,24,22,18,14,78,60,41,30.60,30.37,8,2,14,0.00
2013-2-16,46,30,16,25,16,10,78,59,34,30.65,30.31,8,1,13,0.00
2013-2-17,49,33,20,26,18,14,79,56,27,30.31,29.77,8,2,12,0.00
2013-2-18,39,30,22,20,14,9,71,52,29,30.26,29.96,8,2,15,0.00
2013-2-19,46,29,14,19,12,6,73,51,26,30.27,29.85,7,2,13,0.00
2013-2-20,48,33,21,28,18,12,71,55,27,29.85,29.52,5,1,10,0.00
2013-2-21,39,33,26,28,22,16,86,65,47,29.97,29.64,10,3,17,0.00
2013-2-22,36,28,21,22,16,9,84,63,36,30.22,29.97,8,2,13,0.00
2013-2-23,37,25,15,28,18,8,91,74,55,30.21,29.83,5,1,10,0.05
2013-2-24,32,26,21,23,20,16,90,80,65,30.26,29.89,5,1,10,0.04
2013-2-25,38,24,12,20,14,7,87,68,32,30.44,30.14,7,1,12,0.00
2013-2-26,33,27,22,22,17,14,88,67,48,30.37,30.03,10,2,21,0.02
2013-2-27,37,24,11,17,11,3,82,59,32,30.58,30.37,8,2,13,0.00
2013-2-28,40,26,12,28,13,4,90,61,30,30.70,30.53,7,2,11,0.01
2013-3-1,43,34,28,33,29,25,91,80,58,30.63,30.52,4,1,7,0.06
2013-3-2,54,39,26,32,27,23,88,67,33,30.63,30.21,7,1,10,0.00
2013-3-3,51,38,30,37,29,25,92,71,40,30.21,29.85,5,1,9,0.33
2013-3-4,42,35,24,40,25,12,94,70,36,30.36,29.81,11,3,18,0.12
2013-3-5,50,30,16,24,14,5,77,56,18,30.58,30.28,6,1,9,0.00
2013-3-6,60,39,22,31,22,15,79,54,22,30.33,29.90,8,2,9,0.00
2013-3-7,62,44,31,29,24,10,78,51,13,30.00,29.82,8,2,12,0.00
2013-3-8,56,42,32,37,27,18,90,58,23,29.92,29.63,7,2,11,0.05
2013-3-9,38,35,30,36,32,26,94,91,86,30.17,29.57,3,1,6,0.19
2013-3-10,45,31,17,30,22,14,88,72,43,30.44,30.17,4,1,7,0.00
2013-3-11,49,37,24,32,24,19,84,61,37,30.40,30.12,9,2,14,0.00
2013-3-12,55,44,35,33,30,25,81,60,34,30.29,30.17,7,2,10,0.00
2013-3-13,60,44,32,33,28,24,79,56,26,30.42,30.27,7,1,10,0.00
2013-3-14,66,46,31,33,28,21,80,54,19,30.45,30.20,7,2,10,0.00
2013-3-15,67,48,34,34,30,25,82,55,21,30.24,29.88,10,2,13,0.00
2013-3-16,57,47,40,36,33,29,77,59,36,29.93,29.73,10,2,12,0.00
2013-3-17,51,42,34,38,27,10,92,60,23,29.88,29.62,14,4,23,0.22
2013-3-18,50,41,32,21,16,11,58,37,24,30.01,29.89,9,4,20,0.00
2013-3-19,53,42,32,24,10,-14,61,32,7,30.26,30.00,9,2,17,0.00
2013-3-20,51,38,26,38,18,5,84,48,22,30.27,29.90,5,1,9,0.00
2013-3-21,46,39,33,36,31,21,92,74,39,29.92,29.67,10,2,16,0.46
2013-3-22,47,36,28,25,20,9,83,55,22,29.92,29.64,10,4,21,0.00
2013-3-23,33,30,29,24,22,18,81,72,55,29.88,29.84,6,2,13,0.00
2013-4-1,61,54,40,39,32,26,63,44,31,29.95,29.72,8,2,12,0.00
2013-4-2,54,49,44,36,34,26,72,56,35,29.94,29.76,12,5,22,0.00
2013-4-3,63,50,39,37,30,20,82,51,21,30.10,29.94,6,1,12,0.00
2013-4-4,68,51,34,32,26,20,71,43,17,30.19,29.91,6,1,12,0.00
2013-4-5,66,51,41,43,32,24,86,52,21,29.95,29.65,11,2,15,0.07
2013-4-6,62,47,37,40,34,24,91,66,24,29.95,29.78,8,2,16,0.00
2013-4-8,54,47,43,40,38,33,86,74,45,29.37,29.25,5,2,12,0.04
2013-4-9,45,31,21,39,27,17,90,84,70,30.13,29.34,10,3,13,0.12
2013-4-10,41,28,17,25,17,10,84,64,37,30.35,30.13,9,2,14,0.00
2013-4-11,52,39,32,36,28,20,89,66,45,30.18,29.89,8,2,12,0.02
2013-4-12,61,52,41,39,26,13,85,41,16,29.93,29.80,10,2,15,0.00
2013-4-13,60,47,32,43,28,21,87,53,24,29.86,29.35,10,2,17,0.46
2013-4-14,50,43,38,38,22,5,89,48,21,29.69,29.51,11,4,20,0.04
2013-4-15,44,37,34,36,32,22,94,83,42,29.78,29.51,8,2,11,0.93
2013-4-16,57,40,30,39,32,26,91,74,35,29.85,29.57,18,5,28,0.01
2013-4-17,36,30,24,27,22,15,90,73,54,30.22,29.77,12,4,22,0.04
2013-4-18,37,29,21,18,15,11,76,56,35,30.47,30.22,11,3,20,0.00
2013-4-19,49,37,24,33,20,13,79,51,30,30.49,30.13,10,2,13,0.00
2013-4-20,53,41,35,40,36,33,92,81,53,30.13,29.95,9,2,16,0.14
2013-4-21,41,40,40,38,38,37,90,90,88,30.13,30.10,1,0,7,0.00
2013-4-22,59,53,43,34,28,22,61,40,24,29.89,29.73,10,4,16,0.00
2013-4-23,46,39,33,34,22,6,79,53,20,30.03,29.84,12,4,18,0.00
2013-4-24,56,47,35,22,14,8,44,27,16,30.27,30.14,8,2,13,0.00
2013-4-25,67,49,32,25,18,12,61,34,12,30.19,29.81,7,1,12,0.00
2013-4-26,68,52,34,28,20,11,68,34,11,30.15,29.94,8,2,15,0.00
2013-4-27,71,54,35,29,23,17,63,35,13,30.23,29.93,8,2,12,0.00
2013-4-28,76,58,38,33,26,21,65,34,14,30.05,29.71,7,2,12,0.00
2013-4-29,77,63,45,36,29,24,62,31,14,29.77,29.45,7,2,14,0.00
2013-4-30,56,51,49,32,31,29,51,46,37,29.50,29.46,0,0,6,0.00
2013-5-1,51,46,36,37,22,11,89,42,21,30.43,29.95,11,4,17,0.42
2013-5-2,55,42,29,24,19,13,75,44,19,30.64,30.43,6,2,11,0.00
2013-5-3,67,49,32,29,20,7,69,37,11,30.45,29.89,7,2,11,0.00
2013-5-4,69,54,36,33,24,10,67,36,11,29.94,29.70,11,2,15,0.00
2013-5-5,70,58,43,35,30,19,64,38,14,29.86,29.72,10,2,17,0.00
2013-5-6,66,54,47,45,36,30,90,54,27,29.88,29.68,9,2,20,0.16
2013-5-7,59,50,45,46,42,37,92,77,47,29.95,29.85,8,1,14,0.11
2013-5-8,53,46,42,44,41,39,92,84,63,30.03,29.88,8,1,12,0.26
2013-5-9,65,51,42,43,40,34,92,69,34,30.07,29.96,6,2,12,0.05
2013-5-10,68,53,38,41,36,29,89,57,23,30.17,30.03,10,1,16,0.03
2013-5-11,72,56,40,40,34,24,80,49,19,30.29,30.05,9,2,20,0.00
2013-5-12,76,61,44,40,36,29,75,44,19,30.17,29.93,8,2,14,0.00
2013-5-13,83,65,48,42,37,26,68,40,13,30.12,29.81,6,1,10,0.00
2013-5-14,84,64,49,46,40,30,70,44,14,29.90,29.65,12,2,19,0.00
2013-5-15,77,62,50,45,42,38,72,50,25,29.80,29.61,9,2,13,0.02
2013-5-16,79,69,57,50,41,33,68,39,20,29.77,29.58,8,2,11,0.01
2013-5-17,78,63,47,43,31,16,70,37,10,29.74,29.58,10,2,15,0.00
2013-5-18,65,55,47,48,38,31,78,53,35,29.83,29.63,10,2,14,0.06
2013-5-19,60,51,42,41,38,32,85,63,37,29.87,29.77,7,1,14,0.03
2013-5-20,63,52,44,46,38,32,82,61,34,29.96,29.86,9,1,11,0.00
2013-5-21,71,56,43,39,35,30,78,49,23,30.00,29.72,6,1,10,0.00
2013-5-22,80,61,45,40,34,20,72,43,11,29.77,29.51,6,1,14,0.00
2013-5-23,84,68,46,36,25,8,62,28,6,29.69,29.47,11,3,22,0.00
2013-5-24,80,66,49,38,27,9,63,29,7,29.74,29.58,10,2,17,0.00
2013-5-25,82,64,44,35,27,10,61,30,7,29.83,29.65,9,2,17,0.00
2013-5-26,83,65,47,35,28,18,57,29,10,29.79,29.57,6,1,14,0.00
2013-5-27,78,61,44,34,27,19,57,32,12,29.73,29.53,9,1,14,0.00
2013-5-28,75,67,59,39,33,26,47,29,16,29.50,29.35,11,4,17,0.00
2013-5-29,61,52,46,45,41,37,89,69,44,29.70,29.50,11,2,19,0.18
2013-5-30,67,56,42,41,33,24,85,47,21,29.79,29.65,9,2,13,0.00
2013-5-31,69,59,45,35,25,13,63,31,12,29.95,29.77,11,2,17,0.00
2013-6-1,72,56,37,36,29,25,67,39,21,30.14,29.91,6,1,13,0.00
2013-6-2,84,64,43,38,30,20,69,36,10,30.00,29.59,6,1,12,0.00
2013-6-3,86,67,47,38,32,23,60,32,11,29.68,29.51,9,2,14,0.00
2013-6-4,85,67,47,40,34,22,61,34,13,29.78,29.58,8,2,18,0.00
2013-6-5,79,66,48,40,34,24,68,35,13,29.80,29.68,10,2,15,0.00
2013-6-6,82,65,46,38,34,29,65,35,15,29.90,29.69,9,2,13,0.00
2013-6-7,82,67,54,43,38,31,60,38,16,29.82,29.57,7,2,13,0.00
2013-6-8,85,68,51,44,38,32,65,37,16,29.72,29.59,11,2,18,0.00
2013-6-9,89,70,49,45,38,32,68,36,14,29.86,29.64,6,1,10,0.00
2013-6-10,94,74,53,44,38,28,62,33,10,29.76,29.49,6,1,9,0.00
2013-6-11,88,72,53,40,30,19,58,26,9,29.77,29.57,11,3,19,0.00
2013-6-12,91,72,52,38,32,20,52,27,8,29.87,29.68,7,1,13,0.00
2013-6-13,88,72,57,44,36,28,47,29,12,29.80,29.53,8,1,16,0.00
2013-6-14,86,68,53,44,34,14,66,33,7,29.72,29.57,8,1,11,0.00
2013-6-15,86,67,47,39,30,22,54,28,11,29.83,29.67,12,2,15,0.00
2013-6-16,78,66,53,51,41,36,59,43,28,29.89,29.78,7,2,14,0.00
2013-6-17,83,69,53,46,40,28,70,40,14,29.93,29.70,5,1,14,0.00
2013-6-18,87,71,53,46,36,23,59,32,11,29.81,29.50,13,1,22,0.01
2013-6-19,66,54,48,34,30,27,55,40,27,29.65,29.58,2,0,3,0.00
2013-6-20,84,74,58,31,28,21,36,19,11,29.68,29.56,6,1,13,0.00
2013-7-1,91,82,67,47,40,31,44,24,13,29.91,29.70,5,2,14,0.00
2013-7-2,89,76,61,47,43,35,58,33,17,29.86,29.64,6,1,10,0.00
2013-7-3,89,71,56,48,42,32,58,37,14,29.82,29.59,10,1,15,0.00
2013-7-4,86,74,58,51,46,42,63,40,22,29.77,29.52,7,2,11,0.00
2013-7-5,88,76,64,56,52,47,72,47,25,29.66,29.43,9,2,12,0.01
2013-7-6,88,72,61,58,53,43,84,56,22,29.69,29.53,6,1,16,0.02
2013-7-8,90,80,68,54,47,38,60,33,17,29.85,29.70,6,2,13,0.00
2013-7-9,93,76,61,49,43,34,57,34,13,29.91,29.71,7,1,9,0.00
2013-7-10,96,80,61,48,41,31,55,29,11,29.83,29.55,6,1,12,0.00
2013-7-11,95,80,66,58,48,40,60,36,17,29.70,29.46,10,2,12,0.00
2013-7-12,89,73,64,63,56,51,75,57,28,29.78,29.56,10,1,13,0.03
2013-7-13,88,74,63,62,55,48,81,55,26,29.82,29.67,7,1,9,0.01
2013-7-14,89,74,62,61,53,47,89,52,27,29.89,29.68,8,2,13,0.03
2013-7-15,91,75,62,55,52,44,69,46,22,29.78,29.53,9,2,16,0.00
2013-7-16,90,76,60,56,53,48,74,47,25,29.78,29.56,8,1,13,0.00
2013-7-17,90,76,65,60,54,48,69,48,25,29.84,29.65,8,2,15,0.05
2013-7-18,91,73,60,59,54,44,81,55,20,29.91,29.67,11,2,18,0.00
2013-7-19,92,82,70,59,50,36,61,36,15,29.70,29.60,8,2,13,0.03
2013-7-20,93,76,59,53,44,27,71,39,10,29.76,29.51,6,1,9,0.00
2013-7-21,94,77,57,42,36,25,54,27,9,29.70,29.50,7,1,11,0.00
2013-7-22,94,74,60,44,38,28,46,29,10,29.74,29.57,7,1,9,0.00
2013-7-23,96,86,69,35,27,17,28,13,7,29.79,29.60,5,1,13,0.00
2013-7-24,85,75,64,48,41,30,44,30,20,29.77,29.64,7,1,11,0.00
2013-7-25,86,73,62,51,48,44,60,42,24,29.89,29.71,12,3,18,0.00
2013-7-26,91,74,57,51,44,36,71,40,16,29.97,29.74,6,1,13,0.00
2013-7-27,87,70,58,59,47,40,70,46,24,29.84,29.59,9,2,13,0.03
2013-7-28,77,66,60,60,57,50,91,75,45,29.77,29.64,5,1,9,0.22
2013-7-29,79,67,59,61,55,48,88,66,35,29.92,29.76,9,1,17,0.03
2013-7-30,84,70,53,54,48,43,86,50,24,30.08,29.92,10,1,15,0.00
2013-7-31,89,72,55,48,45,35,73,42,16,30.09,29.80,5,1,8,0.00
2013-8-1,75,65,56,57,49,42,80,58,38,29.92,29.85,6,1,9,0.01
2013-8-2,87,71,55,55,50,42,88,54,22,29.93,29.73,6,1,14,0.00
2013-8-3,86,73,60,56,50,44,70,48,24,29.89,29.71,8,2,15,0.06
2013-8-4,86,68,56,56,51,44,80,58,24,29.95,29.78,11,1,16,0.02
2013-8-5,84,68,56,56,52,47,83,60,28,29.95,29.77,9,2,16,0.10
2013-8-6,82,68,56,53,50,40,83,55,28,29.88,29.76,11,2,12,0.00
2013-8-7,78,66,58,50,48,42,73,53,29,29.85,29.73,8,1,11,0.02
2013-8-8,82,66,58,54,48,39,72,55,22,29.89,29.73,10,2,14,0.01
2013-8-9,79,65,53,53,47,41,74,54,26,29.98,29.84,10,2,16,0.00
2013-8-10,83,65,52,55,45,37,79,53,20,30.04,29.86,10,2,13,0.06
2013-8-11,85,66,48,51,43,35,87,51,18,30.10,29.85,9,1,13,0.00
2013-8-12,83,67,52,55,43,39,82,45,21,29.98,29.80,9,2,17,0.09
2013-8-13,83,68,52,53,44,37,83,49,20,30.02,29.85,10,2,17,0.00
2013-8-14,85,69,52,47,40,30,71,40,16,30.02,29.80,7,1,15,0.00
2013-8-15,90,70,50,41,37,29,64,35,12,30.01,29.77,9,1,18,0.00
2013-8-16,93,72,52,40,33,21,57,29,8,29.99,29.74,6,1,12,0.00
2013-8-17,93,73,53,44,37,29,54,30,11,29.95,29.68,8,1,11,0.00
2013-8-18,90,73,60,52,45,40,56,39,18,29.88,29.68,10,2,17,0.00
2013-8-19,93,74,56,50,44,28,73,41,11,29.94,29.65,5,1,8,0.00
2013-8-20,90,71,59,59,47,42,87,47,21,29.85,29.64,11,1,18,0.12
2013-8-21,91,73,55,57,51,42,91,54,19,29.94,29.73,7,1,12,0.00
2013-8-22,87,75,63,57,49,44,61,43,25,29.89,29.64,9,2,16,0.00
2013-8-23,81,67,59,64,56,52,87,69,41,29.82,29.61,10,1,20,0.75
2013-8-24,81,68,57,56,52,44,87,60,28,29.91,29.77,7,0,10,0.01
2013-8-25,79,67,62,60,55,51,85,66,39,29.94,29.86,8,1,11,0.01
2013-8-26,78,68,61,61,58,55,93,74,46,29.99,29.84,6,1,9,0.07
2013-8-27,85,71,57,66,55,49,89,62,31,29.96,29.70,8,1,12,0.12
2013-8-28,91,74,59,56,52,44,83,51,21,29.88,29.69,10,2,15,0.00
2013-8-29,92,75,58,54,50,43,75,47,19,29.93,29.73,12,2,14,0.00
2013-8-30,86,73,61,54,51,46,70,49,25,29.92,29.73,10,1,12,0.00
2013-8-31,88,73,62,55,52,44,72,51,23,29.87,29.67,8,2,16,0.00
2013-9-1,88,74,60,58,52,46,76,51,23,29.85,29.63,7,1,10,0.00
2013-9-2,87,72,58,60,51,47,76,51,28,29.88,29.66,4,0,8,0.01
2013-9-3,90,74,57,52,48,37,73,45,17,29.93,29.71,9,1,12,0.00
2013-9-4,94,76,65,52,49,43,61,42,18,29.91,29.70,6,1,15,0.00
2013-9-5,92,79,60,52,49,45,68,38,21,29.93,29.70,7,2,11,0.00
2013-9-6,92,76,60,54,49,40,71,43,17,29.92,29.65,9,2,14,0.00
2013-9-7,91,72,57,54,49,41,78,51,19,29.90,29.66,6,1,6,0.00
2013-9-9,66,60,59,57,56,54,89,86,73,29.79,29.66,6,1,12,0.38
2013-9-10,72,64,58,61,56,53,91,78,59,29.85,29.78,7,1,8,0.07
2013-9-11,73,65,60,59,57,55,88,77,60,29.90,29.82,3,0,0,0.00
2013-9-12,82,64,56,59,55,47,92,73,31,29.97,29.78,12,1,0,0.37
2013-9-13,78,66,58,58,53,44,93,67,30,29.88,29.61,6,1,0,0.13
2013-9-14,71,62,57,56,54,50,92,75,50,29.80,29.67,4,1,0,0.21
2013-9-15,73,60,55,58,53,50,91,78,46,29.97,29.80,4,0,0,0.21
2013-9-16,79,63,52,54,50,42,93,67,29,30.03,29.83,7,1,0,0.01
2013-9-17,76,60,50,58,51,45,88,72,38,29.94,29.67,9,1,0,0.10
2013-9-18,65,58,53,59,54,49,92,85,60,29.80,29.65,8,1,0,0.34
2013-9-19,73,59,49,51,42,26,92,61,18,29.97,29.80,9,1,0,0.00
2013-9-20,77,58,41,41,35,24,80,50,15,30.08,29.85,8,1,0,0.00
2013-9-21,80,62,47,44,39,35,69,47,22,29.94,29.62,9,1,0,0.00
2013-9-22,64,56,46,52,47,42,91,74,47,29.66,29.47,11,1,0,0.71
2013-9-23,64,52,46,47,42,34,92,72,36,30.09,29.62,6,1,0,0.22
2013-9-24,74,54,39,45,38,33,89,61,25,30.18,29.82,8,1,0,0.00
2013-9-25,79,61,41,40,33,22,78,43,13,29.84,29.36,10,2,0,0.00
2013-9-26,78,65,48,39,31,20,67,32,12,29.48,29.33,10,3,0,0.00
2013-9-27,65,47,38,47,40,35,90,79,32,30.12,29.42,11,2,0,0.56
2013-9-28,62,46,35,36,34,26,92,68,30,30.35,30.12,8,1,0,0.00
2013-9-29,67,50,34,39,34,28,90,60,24,30.28,29.98,10,2,0,0.00
2013-9-30,75,55,39,39,35,29,82,53,19,30.04,29.78,8,1,0,0.00
2013-10-1,76,57,40,40,36,29,82,51,18,29.98,29.75,10,2,0,0.00
2013-10-2,75,56,41,41,36,30,77,52,20,29.93,29.68,8,1,0,0.00
2013-10-3,73,53,37,40,34,26,90,56,18,29.79,29.47,15,3,0,0.22
2013-10-4,43,37,34,34,30,25,93,77,54,30.40,29.78,11,2,0,0.17
2013-10-5,52,40,33,33,28,24,79,64,40,30.51,30.39,6,1,0,0.00
2013-10-6,65,44,30,38,30,21,86,62,25,30.56,30.29,4,1,0,0.00
2013-10-7,73,51,34,37,34,28,86,57,21,30.32,29.94,3,0,0,0.00
2013-10-8,73,55,38,37,32,26,77,49,18,29.96,29.63,10,2,0,0.00
2013-10-9,68,53,41,37,33,26,75,49,24,29.77,29.63,6,0,0,0.00
2013-10-10,56,48,42,44,40,30,90,75,41,29.75,29.56,8,1,0,0.51
2013-10-11,51,44,42,43,40,38,91,85,69,30.09,29.74,7,1,0,0.35
2013-10-12,60,45,34,39,34,29,93,71,36,30.20,30.00,3,0,0,0.00
2013-10-13,68,50,36,44,36,30,83,62,27,30.10,29.78,9,2,0,0.02
2013-10-14,49,42,35,44,38,32,93,87,78,30.02,29.80,8,1,0,0.70
2013-10-15,49,45,40,37,33,30,80,64,52,30.19,30.07,7,2,0,0.00
2013-10-16,52,41,34,32,28,23,77,61,36,30.21,30.11,9,2,0,0.00
2013-10-17,55,41,30,36,27,21,84,60,27,30.25,30.00,8,1,0,0.05
2013-10-18,51,41,33,37,28,20,89,63,31,30.28,30.04,9,2,0,0.01
2013-10-19,58,41,27,31,25,21,78,57,25,30.35,30.11,7,1,0,0.00
2013-10-20,59,43,30,32,27,24,81,57,28,30.15,29.93,8,1,0,0.00
2013-10-21,59,46,33,34,30,27,88,57,31,30.26,30.06,7,1,0,0.00
2013-10-22,65,45,31,35,30,25,84,59,27,30.37,30.14,6,1,0,0.00
2013-10-23,69,47,32,35,30,27,85,57,22,30.28,30.04,6,1,0,0.00
2013-10-24,69,49,33,32,28,22,78,51,18,30.25,30.02,7,1,0,0.00
2013-10-25,64,49,35,35,30,27,73,52,28,30.23,30.04,3,0,0,0.00
2013-10-26,67,48,33,34,31,26,83,57,22,30.34,30.13,5,1,0,0.00
2013-10-27,64,45,32,34,29,25,83,56,27,30.20,29.81,9,2,0,0.00
2013-11-18,51,39,31,32,29,26,82,69,42,30.23,30.18,5,1,0,0.00
2013-11-19,48,38,28,39,30,22,91,74,48,30.22,29.94,4,0,0,0.09
2013-11-20,51,44,37,40,36,32,93,76,49,29.99,29.79,6,1,0,0.02
2013-11-21,48,38,29,40,34,25,92,87,71,30.33,29.85,5,1,0,0.16
2013-11-22,32,29,28,25,24,23,87,82,68,30.36,30.34,3,2,0,0.00